Current Conditions
Clear
Conditions



Pressure
30.23 (inHG) - 1023.72 (mb)
Visibility

9.9 (miles) - 16.0 (km)
Temperature
57  °F
Temperature
48  °F
Dewpoint
72  %
 Humidity
Wind Speed
6  mph
5  kts
10  km/h
2.7  m/s
Wind Direction
N
45°
E
90°
135°
S
180°
225°
W
270°
315°
 180°

Due South
Airport Data
KPCW
Carl R Keller Field
Metar :KPCW 171215Z AUTO 18005KT 10SM CLR 14/09 A3023 RMK AO2
Mon 17th May 08:15 am
Raw Metar Info
Raw METAR is the most common format in the world for the transmission of observational weather data. It is highly standardized through the International Civil Aviation Organization (ICAO), which allows it to be understood throughout most of the world.
API Info
Data Provided by
https://www.checkwx.com/weather/KPCW

Aviation Weather providing METAR, TAF, AIRMET, SIGMET and OUTLOOK Weather Reports
© Info
CSS/SVG/PHP scripts were developed by weather34.com for use in the weather34 template © 2015-2021

Guide Info provided by Metar-Wikipedia